createdAt,value
2018-09-13T00:00:06.832Z,14.10
2018-09-13T00:02:36.527Z,14.00
2018-09-13T00:05:06.353Z,14.00
2018-09-13T00:07:36.046Z,14.00
2018-09-13T00:10:05.719Z,14.00
2018-09-13T00:12:35.368Z,14.00
2018-09-13T00:15:05.697Z,14.00
2018-09-13T00:17:35.413Z,14.00
2018-09-13T00:20:05.646Z,14.00
2018-09-13T00:22:35.312Z,14.00
2018-09-13T00:25:05.070Z,14.00
2018-09-13T00:27:34.732Z,14.00
2018-09-13T00:30:04.449Z,13.90
2018-09-13T00:32:34.054Z,13.90
2018-09-13T00:35:03.678Z,13.90
2018-09-13T00:37:33.303Z,13.90
2018-09-13T00:40:02.887Z,13.80
2018-09-13T00:42:32.488Z,13.80
2018-09-13T00:45:02.129Z,13.70
2018-09-13T00:47:31.815Z,13.70
2018-09-13T00:50:01.449Z,13.60
2018-09-13T00:52:31.074Z,13.60
2018-09-13T00:55:00.797Z,13.60
2018-09-13T00:57:30.427Z,13.50
2018-09-13T01:00:00.069Z,13.50
2018-09-13T01:02:29.756Z,13.40
2018-09-13T01:04:59.749Z,13.50
2018-09-13T01:07:29.459Z,13.50
2018-09-13T01:09:59.087Z,13.50
2018-09-13T01:12:29.575Z,13.50
2018-09-13T01:14:59.237Z,13.50
2018-09-13T01:17:28.968Z,13.40
2018-09-13T01:19:58.630Z,13.50
2018-09-13T01:22:28.285Z,13.40
2018-09-13T01:24:57.977Z,13.40
2018-09-13T01:27:28.478Z,13.40
2018-09-13T01:29:58.671Z,13.40
2018-09-13T01:32:28.383Z,13.30
2018-09-13T01:34:58.035Z,13.40
2018-09-13T01:37:27.656Z,13.30
2018-09-13T01:39:57.282Z,13.30
2018-09-13T01:42:26.927Z,13.20
2018-09-13T01:44:57.501Z,13.20
2018-09-13T01:47:27.156Z,13.20
2018-09-13T01:49:56.824Z,13.20
2018-09-13T01:52:26.473Z,13.20
2018-09-13T01:54:56.161Z,13.20
2018-09-13T01:57:25.771Z,13.20
2018-09-13T01:59:55.414Z,13.20
2018-09-13T02:02:25.070Z,13.20
2018-09-13T02:04:54.717Z,13.20
2018-09-13T02:07:24.340Z,13.10
2018-09-13T02:09:53.970Z,13.10
2018-09-13T02:12:23.593Z,13.10
2018-09-13T02:14:53.391Z,13.10
2018-09-13T02:17:23.058Z,13.10
2018-09-13T02:19:52.703Z,13.10
2018-09-13T02:22:22.360Z,13.10
2018-09-13T02:24:51.964Z,13.00
2018-09-13T02:27:21.627Z,13.00
2018-09-13T02:29:51.274Z,12.90
2018-09-13T02:32:20.885Z,12.90
2018-09-13T02:34:50.620Z,12.90
2018-09-13T02:37:20.263Z,12.80
2018-09-13T02:39:49.884Z,12.80
2018-09-13T02:42:19.593Z,12.70
2018-09-13T02:44:49.214Z,12.70
2018-09-13T02:47:19.599Z,12.70
2018-09-13T02:49:49.243Z,12.70
2018-09-13T02:52:18.859Z,12.60
2018-09-13T02:54:48.471Z,12.60
2018-09-13T02:57:18.128Z,12.60
2018-09-13T02:59:47.782Z,12.60
2018-09-13T03:02:17.392Z,12.60
2018-09-13T03:04:47.078Z,12.60
2018-09-13T03:07:16.735Z,12.60
2018-09-13T03:09:46.395Z,12.60
2018-09-13T03:12:16.027Z,12.60
2018-09-13T03:14:45.739Z,12.50
2018-09-13T03:17:15.400Z,12.50
2018-09-13T03:19:45.048Z,12.50
2018-09-13T03:22:14.663Z,12.50
2018-09-13T03:24:44.334Z,12.50
2018-09-13T03:27:13.977Z,12.50
2018-09-13T03:29:43.702Z,12.50
2018-09-13T03:32:13.385Z,12.50
2018-09-13T03:34:43.020Z,12.40
2018-09-13T03:37:12.672Z,12.50
2018-09-13T03:39:42.314Z,12.50
2018-09-13T03:42:11.944Z,12.40
2018-09-13T03:44:41.593Z,12.40
2018-09-13T03:47:11.225Z,12.40
2018-09-13T03:49:40.907Z,12.40
2018-09-13T03:52:10.566Z,12.40
2018-09-13T03:54:40.202Z,12.30
2018-09-13T03:57:10.909Z,12.30
2018-09-13T03:59:40.580Z,12.30
2018-09-13T04:02:10.253Z,12.30
2018-09-13T04:04:39.892Z,12.30
2018-09-13T04:07:09.547Z,12.30
2018-09-13T04:09:39.183Z,12.30
2018-09-13T04:12:08.881Z,12.30
2018-09-13T04:14:39.301Z,12.20
2018-09-13T04:17:09.042Z,12.30
2018-09-13T04:19:43.024Z,12.30
2018-09-13T04:22:13.577Z,12.30
2018-09-13T04:24:43.982Z,12.20
2018-09-13T04:27:14.019Z,12.20
2018-09-13T04:29:44.072Z,12.30
2018-09-13T04:32:13.825Z,12.30
2018-09-13T04:34:43.491Z,12.30
2018-09-13T04:37:13.162Z,12.30
2018-09-13T04:39:42.803Z,12.30
2018-09-13T04:42:12.447Z,12.30
2018-09-13T04:44:42.100Z,12.30
2018-09-13T04:47:11.766Z,12.30
2018-09-13T04:49:41.563Z,12.30
2018-09-13T04:52:11.380Z,12.30
2018-09-13T04:54:41.084Z,12.30
2018-09-13T04:57:10.770Z,12.30
2018-09-13T04:59:40.790Z,12.30
2018-09-13T05:02:11.464Z,12.40
2018-09-13T05:04:41.263Z,12.40
2018-09-13T05:07:11.063Z,12.40
2018-09-13T05:09:40.915Z,12.40
2018-09-13T05:12:10.652Z,12.50
2018-09-13T05:14:40.404Z,12.50
2018-09-13T05:17:10.119Z,12.50
2018-09-13T05:19:39.811Z,12.50
2018-09-13T05:22:09.495Z,12.50
2018-09-13T05:24:39.242Z,12.60
2018-09-13T05:27:09.110Z,12.60
2018-09-13T05:29:38.853Z,12.60
2018-09-13T05:32:08.951Z,12.70
2018-09-13T05:34:38.681Z,12.70
2018-09-13T05:37:08.481Z,12.70
2018-09-13T05:39:38.184Z,12.70
2018-09-13T05:42:07.960Z,12.80
2018-09-13T05:44:37.842Z,12.80
2018-09-13T05:47:07.636Z,12.90
2018-09-13T05:49:37.399Z,12.90
2018-09-13T05:52:07.248Z,12.90
2018-09-13T05:54:36.957Z,12.90
2018-09-13T05:57:06.743Z,12.90
2018-09-13T05:59:36.431Z,12.90
2018-09-13T06:02:06.213Z,13.00
2018-09-13T06:04:36.145Z,13.00
2018-09-13T06:07:06.027Z,13.00
2018-09-13T06:09:35.971Z,13.10
2018-09-13T06:12:05.816Z,13.10
2018-09-13T06:14:35.554Z,13.10
2018-09-13T06:17:05.366Z,13.10
2018-09-13T06:19:35.072Z,13.20
2018-09-13T06:22:04.939Z,13.20
2018-09-13T06:24:34.650Z,13.20
2018-09-13T06:27:04.505Z,13.30
2018-09-13T06:29:34.412Z,13.30
2018-09-13T06:32:04.065Z,13.30
2018-09-13T06:34:33.753Z,13.40
2018-09-13T06:37:03.627Z,13.40
2018-09-13T06:39:33.412Z,13.50
2018-09-13T06:42:03.288Z,13.50
2018-09-13T06:44:33.296Z,13.50
2018-09-13T06:47:03.049Z,13.50
2018-09-13T06:49:32.789Z,13.60
2018-09-13T06:52:02.541Z,13.70
2018-09-13T06:54:32.419Z,13.70
2018-09-13T06:57:02.143Z,13.70
2018-09-13T06:59:32.195Z,13.80
2018-09-13T07:02:02.001Z,13.80
2018-09-13T07:04:31.762Z,13.90
2018-09-13T07:07:01.514Z,13.90
2018-09-13T07:09:31.250Z,13.90
2018-09-13T07:12:00.956Z,14.00
2018-09-13T07:14:30.680Z,14.00
2018-09-13T07:17:00.441Z,14.10
2018-09-13T07:19:30.231Z,14.10
2018-09-13T07:22:00.945Z,14.20
2018-09-13T07:24:31.059Z,14.20
2018-09-13T07:27:00.820Z,14.30
2018-09-13T07:29:30.707Z,14.30
2018-09-13T07:32:00.543Z,14.40
2018-09-13T07:34:30.328Z,14.40
2018-09-13T07:37:00.319Z,14.40
2018-09-13T07:39:30.177Z,14.50
2018-09-13T07:41:59.915Z,14.50
2018-09-13T07:44:29.935Z,14.60
2018-09-13T07:46:59.847Z,14.70
2018-09-13T07:49:29.788Z,14.80
2018-09-13T07:52:00.170Z,14.90
2018-09-13T07:54:29.862Z,15.00
2018-09-13T07:56:59.639Z,15.10
2018-09-13T07:59:29.656Z,15.20
2018-09-13T08:01:59.442Z,15.30
2018-09-13T08:04:29.164Z,15.40
2018-09-13T08:06:59.136Z,15.40
2018-09-13T08:09:29.294Z,15.50
2018-09-13T08:11:59.390Z,15.50
2018-09-13T08:14:29.050Z,15.60
2018-09-13T08:16:58.859Z,15.60
2018-09-13T08:19:28.574Z,15.70
2018-09-13T08:21:58.387Z,15.80
2018-09-13T08:24:28.172Z,15.90
2018-09-13T08:26:57.954Z,16.00
2018-09-13T08:29:27.731Z,16.10
2018-09-13T08:31:57.516Z,16.20
2018-09-13T08:34:27.221Z,16.30
2018-09-13T08:36:56.984Z,16.30
2018-09-13T08:39:26.690Z,16.40
2018-09-13T08:41:56.393Z,16.50
2018-09-13T08:44:26.290Z,16.50
2018-09-13T08:46:56.241Z,16.50
2018-09-13T08:49:26.148Z,16.50
2018-09-13T08:51:55.893Z,16.50
2018-09-13T08:54:25.702Z,16.50
2018-09-13T08:56:55.600Z,16.60
2018-09-13T08:59:25.363Z,16.70
2018-09-13T09:01:55.093Z,16.80
2018-09-13T09:04:24.808Z,16.90
2018-09-13T09:06:54.613Z,17.00
2018-09-13T09:09:24.350Z,17.10
2018-09-13T09:11:54.110Z,17.20
2018-09-13T09:14:24.159Z,17.30
2018-09-13T09:16:53.974Z,17.30
2018-09-13T09:19:24.088Z,17.30
2018-09-13T09:21:53.930Z,17.30
2018-09-13T09:24:23.873Z,17.30
2018-09-13T09:26:53.706Z,17.30
2018-09-13T09:29:23.593Z,17.30
2018-09-13T09:31:53.268Z,17.40
2018-09-13T09:34:23.033Z,17.50
2018-09-13T09:36:53.891Z,17.60
2018-09-13T09:39:23.750Z,17.60
2018-09-13T09:41:53.627Z,17.70
2018-09-13T09:44:23.695Z,17.70
2018-09-13T09:46:53.465Z,17.80
2018-09-13T09:49:23.187Z,17.90
2018-09-13T09:51:52.926Z,18.00
2018-09-13T09:54:23.131Z,18.10
2018-09-13T09:56:53.056Z,18.20
2018-09-13T09:59:22.806Z,18.30
2018-09-13T10:01:57.862Z,18.40
2018-09-13T10:04:27.648Z,18.40
2018-09-13T10:06:58.334Z,18.50
2018-09-13T10:09:28.110Z,18.50
2018-09-13T10:11:57.855Z,18.40
2018-09-13T10:14:27.745Z,18.50
2018-09-13T10:17:05.642Z,18.50
2018-09-13T10:19:40.519Z,18.60
2018-09-13T10:22:15.630Z,18.70
2018-09-13T10:24:50.540Z,18.90
2018-09-13T10:27:25.533Z,18.80
2018-09-13T10:30:00.450Z,18.90
2018-09-13T10:32:35.432Z,19.00
2018-09-13T10:35:10.337Z,18.90
2018-09-13T10:37:50.172Z,18.90
2018-09-13T10:40:29.900Z,18.80
2018-09-13T10:43:07.510Z,18.80
2018-09-13T10:45:49.800Z,18.90
2018-09-13T10:48:27.576Z,18.90
2018-09-13T10:51:03.772Z,18.90
2018-09-13T10:53:40.771Z,19.00
2018-09-13T10:56:14.343Z,18.90
2018-09-13T10:58:50.455Z,19.00
2018-09-13T11:01:26.258Z,19.30
2018-09-13T11:04:01.549Z,19.50
2018-09-13T11:06:32.396Z,19.80
2018-09-13T11:09:04.254Z,20.00
2018-09-13T11:11:35.972Z,20.10
2018-09-13T11:14:13.914Z,20.30
2018-09-13T11:16:46.492Z,20.40
2018-09-13T11:19:17.689Z,20.50
2018-09-13T11:21:47.962Z,20.60
2018-09-13T11:24:22.452Z,20.70
2018-09-13T11:26:53.514Z,20.60
2018-09-13T11:29:23.925Z,20.50
2018-09-13T11:31:54.893Z,20.40
2018-09-13T11:34:26.524Z,20.40
2018-09-13T11:36:57.666Z,20.60
2018-09-13T11:39:29.426Z,20.70
2018-09-13T11:42:01.145Z,20.80
2018-09-13T11:44:32.236Z,20.80
2018-09-13T11:47:03.410Z,20.90
2018-09-13T11:49:33.740Z,20.90
2018-09-13T11:52:04.193Z,20.70
2018-09-13T11:54:34.787Z,20.60
2018-09-13T11:57:06.361Z,20.60
2018-09-13T11:59:37.092Z,20.50
2018-09-13T12:02:08.449Z,20.20
2018-09-13T12:04:40.249Z,20.10
2018-09-13T12:07:12.832Z,20.10
2018-09-13T12:09:43.188Z,20.20
2018-09-13T12:12:13.711Z,20.30
2018-09-13T12:14:43.815Z,20.20
2018-09-13T12:17:14.053Z,20.10
2018-09-13T12:19:44.436Z,20.00
2018-09-13T12:22:15.064Z,20.00
2018-09-13T12:24:45.212Z,20.10
2018-09-13T12:27:15.855Z,20.00
2018-09-13T12:29:46.288Z,20.10
2018-09-13T12:32:16.555Z,20.20
2018-09-13T12:34:46.829Z,20.30
2018-09-13T12:37:17.186Z,20.30
2018-09-13T12:39:47.720Z,20.40
2018-09-13T12:42:18.519Z,20.40
2018-09-13T12:44:48.720Z,20.40
2018-09-13T12:47:19.843Z,20.40
2018-09-13T12:49:50.288Z,20.50
2018-09-13T12:52:20.599Z,20.50
2018-09-13T12:54:50.823Z,20.50
2018-09-13T12:57:21.311Z,20.60
2018-09-13T12:59:51.630Z,20.80
2018-09-13T13:02:22.814Z,21.00
2018-09-13T13:04:53.270Z,21.40
2018-09-13T13:07:24.093Z,21.70
2018-09-13T13:09:54.000Z,22.30
2018-09-13T13:12:23.979Z,23.30
2018-09-13T13:14:54.557Z,24.00
2018-09-13T13:17:24.659Z,24.30
2018-09-13T13:19:55.624Z,24.70
2018-09-13T13:22:25.650Z,24.90
2018-09-13T13:24:56.511Z,25.20
2018-09-13T13:27:26.665Z,25.40
2018-09-13T13:29:56.837Z,25.40
2018-09-13T13:32:26.843Z,25.40
2018-09-13T13:34:56.819Z,25.30
2018-09-13T13:37:26.791Z,25.10
2018-09-13T13:39:57.436Z,25.00
2018-09-13T13:42:27.230Z,25.00
2018-09-13T13:44:57.039Z,25.30
2018-09-13T13:47:27.119Z,25.50
2018-09-13T13:49:56.889Z,25.70
2018-09-13T13:52:27.986Z,26.10
2018-09-13T13:54:57.765Z,26.60
2018-09-13T13:57:27.523Z,27.20
2018-09-13T13:59:57.250Z,27.90
2018-09-13T14:02:26.955Z,28.30
2018-09-13T14:04:56.716Z,28.60
2018-09-13T14:07:26.383Z,28.40
2018-09-13T14:09:56.717Z,28.20
2018-09-13T14:12:26.447Z,27.90
2018-09-13T14:14:56.857Z,27.40
2018-09-13T14:17:26.633Z,27.00
2018-09-13T14:19:56.396Z,26.70
2018-09-13T14:22:26.164Z,26.40
2018-09-13T14:24:55.886Z,26.00
2018-09-13T14:27:25.876Z,25.60
2018-09-13T14:29:55.689Z,25.30
2018-09-13T14:32:25.328Z,25.10
2018-09-13T14:34:54.931Z,25.00
2018-09-13T14:37:24.909Z,24.90
2018-09-13T14:39:54.608Z,24.80
2018-09-13T14:42:24.486Z,24.50
2018-09-13T14:44:54.293Z,24.50
2018-09-13T14:47:24.005Z,25.10
2018-09-13T14:49:53.800Z,26.50
2018-09-13T14:52:23.681Z,29.00
2018-09-13T14:54:53.469Z,30.70
2018-09-13T14:57:23.262Z,31.40
2018-09-13T14:59:52.987Z,30.80
2018-09-13T15:02:22.725Z,29.70
2018-09-13T15:04:52.546Z,28.60
2018-09-13T15:07:22.724Z,27.90
2018-09-13T15:09:52.908Z,28.10
2018-09-13T15:12:22.705Z,28.60
2018-09-13T15:14:52.541Z,29.20
2018-09-13T15:17:22.497Z,29.00
2018-09-13T15:19:52.303Z,28.40
2018-09-13T15:22:22.070Z,27.70
2018-09-13T15:24:51.978Z,26.90
2018-09-13T15:27:22.306Z,26.20
2018-09-13T15:29:52.237Z,25.60
2018-09-13T15:32:22.119Z,25.00
2018-09-13T15:34:52.888Z,24.60
2018-09-13T15:37:23.450Z,24.30
2018-09-13T15:39:53.779Z,24.00
2018-09-13T15:42:24.194Z,24.00
2018-09-13T15:44:54.368Z,24.00
2018-09-13T15:47:24.315Z,24.00
2018-09-13T15:49:54.860Z,23.90
2018-09-13T15:52:24.860Z,24.80
2018-09-13T15:54:54.616Z,26.60
2018-09-13T15:57:24.345Z,28.80
2018-09-13T15:59:54.135Z,30.70
2018-09-13T16:02:24.004Z,32.10
2018-09-13T16:04:53.790Z,33.20
2018-09-13T16:07:23.547Z,34.00
2018-09-13T16:09:53.234Z,34.50
2018-09-13T16:12:23.016Z,34.60
2018-09-13T16:14:52.808Z,34.60
2018-09-13T16:17:22.524Z,34.50
2018-09-13T16:19:52.789Z,34.10
2018-09-13T16:22:22.756Z,33.00
2018-09-13T16:24:52.447Z,31.80
2018-09-13T16:27:22.193Z,30.40
2018-09-13T16:29:52.453Z,28.80
2018-09-13T16:32:23.579Z,27.40
2018-09-13T16:34:54.246Z,26.20
2018-09-13T16:37:29.418Z,25.50
2018-09-13T16:40:04.609Z,24.80
2018-09-13T16:42:43.913Z,24.20
2018-09-13T16:45:14.098Z,23.60
2018-09-13T16:47:49.552Z,23.00
2018-09-13T16:50:20.560Z,22.40
2018-09-13T16:52:50.622Z,21.90
2018-09-13T16:55:20.912Z,21.40
2018-09-13T16:57:51.003Z,21.00
2018-09-13T17:00:22.285Z,20.60
2018-09-13T17:02:52.135Z,20.20
2018-09-13T17:05:22.879Z,19.90
2018-09-13T17:07:53.148Z,19.60
2018-09-13T17:10:23.439Z,19.30
2018-09-13T17:12:53.714Z,19.00
2018-09-13T17:15:24.226Z,18.80
2018-09-13T17:17:54.453Z,18.60
2018-09-13T17:20:26.379Z,18.40
2018-09-13T17:22:56.409Z,18.20
2018-09-13T17:25:27.311Z,18.10
2018-09-13T17:27:57.260Z,18.00
2018-09-13T17:30:27.168Z,17.80
2018-09-13T17:32:57.501Z,17.70
2018-09-13T17:35:28.299Z,17.60
2018-09-13T17:37:58.166Z,17.50
2018-09-13T17:40:28.550Z,17.40
2018-09-13T17:43:00.840Z,17.30
2018-09-13T17:45:31.081Z,17.20
2018-09-13T17:48:01.633Z,17.10
2018-09-13T17:50:31.965Z,17.00
2018-09-13T17:53:02.155Z,16.90
2018-09-13T17:55:35.273Z,16.80
2018-09-13T17:58:06.216Z,16.70
2018-09-13T18:00:36.419Z,16.60
2018-09-13T18:03:06.874Z,16.50
2018-09-13T18:05:36.699Z,16.40
2018-09-13T18:08:06.451Z,16.30
2018-09-13T18:10:36.256Z,16.20
2018-09-13T18:13:06.213Z,16.10
2018-09-13T18:15:35.988Z,16.00
2018-09-13T18:18:06.319Z,15.90
2018-09-13T18:20:36.778Z,15.80
2018-09-13T18:23:06.834Z,15.70
2018-09-13T18:25:36.669Z,15.60
2018-09-13T18:28:06.408Z,15.60
2018-09-13T18:30:36.217Z,15.50
2018-09-13T18:33:06.068Z,15.40
2018-09-13T18:35:35.832Z,15.30
2018-09-13T18:38:05.664Z,15.20
2018-09-13T18:40:35.501Z,15.20
2018-09-13T18:43:05.667Z,15.10
2018-09-13T18:45:35.582Z,15.00
2018-09-13T18:48:05.578Z,15.00
2018-09-13T18:50:35.724Z,14.90
2018-09-13T18:53:05.482Z,14.80
2018-09-13T18:55:35.395Z,14.80
2018-09-13T18:58:05.198Z,14.80
2018-09-13T19:00:35.120Z,14.70
2018-09-13T19:03:05.115Z,14.70
2018-09-13T19:05:35.008Z,14.70
2018-09-13T19:08:04.908Z,14.60
2018-09-13T19:10:35.407Z,14.50
2018-09-13T19:13:05.294Z,14.40
2018-09-13T19:15:35.083Z,14.40
2018-09-13T19:18:05.628Z,14.30
2018-09-13T19:20:36.211Z,14.20
2018-09-13T19:23:07.453Z,14.20
2018-09-13T19:25:38.182Z,14.10
2018-09-13T19:28:08.192Z,14.00
2018-09-13T19:30:38.156Z,14.00
2018-09-13T19:33:08.098Z,14.00
2018-09-13T19:35:38.619Z,14.00
2018-09-13T19:38:08.441Z,14.10
2018-09-13T19:40:38.881Z,14.00
2018-09-13T19:43:08.821Z,13.90
2018-09-13T19:45:38.902Z,13.90
2018-09-13T19:48:08.795Z,13.80
2018-09-13T19:50:38.930Z,13.70
2018-09-13T19:53:09.194Z,13.70
2018-09-13T19:55:40.390Z,13.70
2018-09-13T19:58:10.203Z,13.60
2018-09-13T20:00:40.010Z,13.60
2018-09-13T20:03:09.777Z,13.50
2018-09-13T20:05:39.913Z,13.40
2018-09-13T20:08:09.688Z,13.30
2018-09-13T20:10:39.412Z,13.30
2018-09-13T20:13:09.238Z,13.20
2018-09-13T20:15:39.022Z,13.20
2018-09-13T20:18:08.757Z,13.10
2018-09-13T20:20:38.594Z,13.00
2018-09-13T20:23:08.688Z,13.00
2018-09-13T20:25:38.795Z,12.90
2018-09-13T20:28:08.489Z,12.80
2018-09-13T20:30:38.329Z,12.80
2018-09-13T20:33:08.173Z,12.70
2018-09-13T20:35:38.029Z,12.60
2018-09-13T20:38:07.700Z,12.60
2018-09-13T20:40:37.440Z,12.60
2018-09-13T20:43:07.477Z,12.50
2018-09-13T20:45:37.357Z,12.40
2018-09-13T20:48:07.097Z,12.40
2018-09-13T20:50:37.000Z,12.30
2018-09-13T20:53:06.725Z,12.20
2018-09-13T20:55:36.704Z,12.10
2018-09-13T20:58:06.530Z,12.00
2018-09-13T21:00:36.325Z,11.90
2018-09-13T21:03:06.079Z,11.80
2018-09-13T21:05:36.379Z,11.80
2018-09-13T21:08:06.175Z,11.70
2018-09-13T21:10:35.892Z,11.70
2018-09-13T21:13:05.612Z,11.70
2018-09-13T21:15:35.393Z,11.70
2018-09-13T21:18:05.151Z,11.70
2018-09-13T21:20:34.881Z,11.60
2018-09-13T21:23:04.726Z,11.50
2018-09-13T21:25:34.540Z,11.50
2018-09-13T21:28:04.361Z,11.40
2018-09-13T21:30:34.253Z,11.30
2018-09-13T21:33:03.995Z,11.20
2018-09-13T21:35:33.770Z,11.10
2018-09-13T21:38:03.491Z,11.10
2018-09-13T21:40:33.613Z,11.00
2018-09-13T21:43:03.307Z,11.00
2018-09-13T21:45:33.087Z,11.00
2018-09-13T21:48:02.825Z,11.00
2018-09-13T21:50:32.623Z,11.00
2018-09-13T21:53:02.408Z,11.00
2018-09-13T21:55:32.213Z,10.90
2018-09-13T21:58:01.997Z,10.90
2018-09-13T22:00:31.866Z,10.90
2018-09-13T22:03:01.744Z,10.90
2018-09-13T22:05:31.574Z,10.80
2018-09-13T22:08:01.282Z,10.80
2018-09-13T22:10:31.046Z,10.80
2018-09-13T22:13:00.775Z,10.80
2018-09-13T22:15:30.748Z,10.80
2018-09-13T22:18:00.477Z,10.90
2018-09-13T22:20:30.775Z,10.90
2018-09-13T22:23:00.518Z,11.00
2018-09-13T22:25:30.396Z,11.00
2018-09-13T22:28:00.273Z,11.20
2018-09-13T22:30:30.022Z,11.20
2018-09-13T22:32:59.795Z,11.30
2018-09-13T22:35:29.597Z,11.30
2018-09-13T22:37:59.371Z,11.30
2018-09-13T22:40:29.213Z,11.20
2018-09-13T22:42:59.252Z,11.20
2018-09-13T22:45:29.364Z,11.20
2018-09-13T22:47:59.103Z,11.00
2018-09-13T22:50:28.939Z,10.90
2018-09-13T22:52:58.689Z,10.80
2018-09-13T22:55:28.472Z,10.80
2018-09-13T22:57:58.168Z,10.70
2018-09-13T23:00:28.751Z,10.60
2018-09-13T23:02:58.521Z,10.60
2018-09-13T23:05:28.521Z,10.50
2018-09-13T23:07:58.320Z,10.40
2018-09-13T23:10:28.140Z,10.30
2018-09-13T23:12:57.952Z,10.30
2018-09-13T23:15:28.373Z,10.30
2018-09-13T23:17:58.237Z,10.30
2018-09-13T23:20:28.499Z,10.30
2018-09-13T23:22:58.570Z,10.30
2018-09-13T23:25:28.761Z,10.30
2018-09-13T23:27:58.934Z,10.30
2018-09-13T23:30:28.676Z,10.30
2018-09-13T23:32:58.470Z,10.30
2018-09-13T23:35:28.303Z,10.30
2018-09-13T23:37:58.079Z,10.20
2018-09-13T23:40:27.963Z,10.20
2018-09-13T23:42:57.785Z,10.20
2018-09-13T23:45:28.353Z,10.20
2018-09-13T23:47:59.106Z,10.10
2018-09-13T23:50:28.982Z,10.20
2018-09-13T23:52:58.830Z,10.10
2018-09-13T23:55:28.584Z,10.10
2018-09-13T23:57:58.344Z,10.10
